Terminal Aerodrome Forecast
Issued by NWS Melbourne, FL

Home | Current Version | Previous Version | Text Only | Print | Product List | Glossary On
Versions: 1 2 3 4 5 6 7 8 9 10 11 12 13 14
000
FTUS42 KMLB 190500
TAFDAB
TAF
KDAB 190521Z 1906/2006 00000KT P6SM FEW150 BKN200
     FM191400 05006KT P6SM BKN120
     FM191900 06009KT P6SM VCSH SCT030 OVC100
     FM200000 04004KT P6SM -SHRA BKN030=

USA.gov is the U.S. government's official web portal to all federal, state and local government web resources and services.